NWS Home NWS Lubbock West Texas Mesonet                      Daily Summary For 03/05/2021

Latest   N   C   S   Daily Sum   3hrΔ   24hrΔ   Soil Data 
Site Map   24hr Precip   72hr Precip   Google Plot


Station Time of Last Max Temp Min Temp Max/Min Dew Pt. Max/Min RH 10m Avg Wind 2m Avg Wind Peak Gust @ 33ft (mph) Potential Evapotranspiration
mm/day or in/day
Rain Sum Solar Rad
MJ/m^2
% Clear Day Red Flag
Abernathy 5ENE 11:59 PM 79 36 57 /28 68 / 47 19.5  (NW) 15.7 46 mph 355° @ 0918 AM 2 or 0.08 0.00 9.4 69.5 0
Adrian 6WSW 11:59 PM 79 36 57 /28 68 / 47 16.3  (NW) 13 40.8 mph 357° @ 0716 AM 1.8 or 0.07 0.00 6.6 50.4 0
Aiken 3WSW 11:59 PM 79 36 57 /28 68 / 47 18.8  (NW) 14.2 43.4 mph 13° @ 1153 AM 1.8 or 0.07 0.00 7.7 57 0
Amarillo 15NNW 11:59 PM 79 36 57 /28 68 / 47 14.5  (NW) 10.8 37.4 mph 343° @ 0531 AM 2 or 0.08 0.00 6.1 47.4 0
Amarillo 7SSE 11:59 PM 79 36 57 /28 68 / 47 15.4  (NW) 11.5 36.8 mph 339° @ 0600 AM 1.8 or 0.07 0.00 7 53.7 0
Amarillo 9NNE 11:59 PM 79 36 57 /28 68 / 47 13.6  (NW) 10.7 39.5 mph 343° @ 0559 AM 1.8 or 0.07 0.00 7.7 59.9 0
Amherst 1NE 11:55 PM 79 36 57 /28 68 / 47 19  (W) 14.1 48.2 mph 341° @ 0905 AM 1.8 or 0.07 0.00 1.7 61.4 0
Andrews 2E 11:59 PM 79 36 57 /28 68 / 47 17.5  (NW) 11.2 48.2 mph 2° @ 1125 AM 3.3 or 0.13 0.00 17.6 123.3 0
Anton 6SSW 11:55 PM 79 36 57 /28 68 / 47 19.9  (W) 15.1 43.7 mph 328° @ 0815 AM 2 or 0.08 0.00 10.8 79.3 0
Aspermont 3NE 11:55 PM 79 36 57 /28 68 / 47 14.9  (W) 10.8 39.1 mph 354° @ 1230 PM 2.5 or 0.1 0.00 2.4 89.2 0
Big Bend NP - Castolon 11:59 PM 79 36 57 /28 68 / 47 10.6  (NW) 8 27 mph 324° @ 0242 PM 4.1 or 0.16 0.00 24.2 154.8 0
Big Bend NP - Persimmon Gap 11:59 PM 79 36 57 /28 68 / 47 9.7  (SE) 8 32.7 mph 16° @ 0352 PM 3.3 or 0.13 0.00 22.4 144.5 0
Big Lake 1WNW 11:59 PM 79 36 57 /28 68 / 47 14.9  (SW) 11.5 38.7 mph 334° @ 1256 PM 3.6 or 0.14 0.00 21.4 145.2 0
Bootleg 11WNW 11:59 PM 79 36 57 /28 68 / 47 19.4  (NW) 14.5 41.1 mph 356° @ 1025 AM 1.8 or 0.07 0.00 6.3 48.1 0
Borger 7E 11:59 PM 79 36 57 /28 68 / 47 13.9  (NW) 10.5 38.4 mph 34° @ 0951 AM 2 or 0.08 0.00 10.5 82.6 0
Boys Ranch 1WSW 11:59 PM 79 36 57 /28 68 / 47 11.8  (W) 9.5 34.7 mph 3° @ 0531 AM 1.5 or 0.06 0.00 7.5 59 0
Brownfield 2S 11:59 PM 79 36 57 /28 68 / 47 18.4  (W) 14.8 47.1 mph 5° @ 0251 PM 2.5 or 0.1 0.00 13.1 93.9 0
Canadian 6E 11:59 PM 79 36 57 /28 68 / 47 11.5  (NW) 8.2 32.6 mph 23° @ 0909 AM 1.3 or 0.05 0.03 8.8 70.7 0
Caprock Canyons State Park 11:59 PM 79 36 57 /28 68 / 47 12.9  (NW) 9.5 36.5 mph 28° @ 0132 PM 1.5 or 0.06 0.00 5.9 44.7 0
Childress 2NNE 11:55 PM 79 36 57 /28 68 / 47 15.7  (NW) 11.1 39.1 mph 7° @ 1210 PM 2 or 0.08 0.00 6.8 51.9 0
Clarendon 2WSW 11:55 PM 79 36 57 /28 68 / 47 16.5  (NW) 12.4 44.7 mph 14° @ 1055 AM 1.8 or 0.07 0.00 7.6 58.4 0
Claude 12SW 11:59 PM 79 36 57 /28 68 / 47 15.8  (NW) 11.3 42.3 mph 353° @ 1032 AM 2 or 0.08 0.00 6.6 50.7 0
Clyde 2WNW 11:59 PM 79 36 57 /28 68 / 47 15.1  (W) 11.3 39.3 mph 341° @ 0100 PM 2.8 or 0.11 0.00 14.8 104.9 0
Colorado City 5NW 11:59 PM 79 36 57 /28 68 / 47 14.3  (NW) 9.7 39.3 mph 359° @ 0313 PM 3 or 0.12 0.00 17.9 127 0
Comanche Springs 11:59 PM 79 36 57 /28 68 / 47 13  (W) 9.7 40.6 mph 345° @ 1101 AM 1.8 or 0.07 0.00 10.6 79.4 0
Coyanosa 2N 11:59 PM 79 36 57 /28 68 / 47 13.7  (NW) 9.8 34.5 mph 340° @ 0159 PM 3.6 or 0.14 0.00 20.5 139.1 0
Crane 1NNW 11:59 PM 79 36 57 /28 68 / 47 13.5  (NW) 10.7 34.1 mph 358° @ 1155 AM 3.3 or 0.13 0.00 19.3 132.2 0
Crowell 1E 11:59 PM 79 36 57 /28 68 / 47 16.8  (W) 13.1 41.7 mph 9° @ 1155 AM 2.3 or 0.09 0.00 10.1 75.7 0
Dell City 11:59 PM 79 36 57 /28 68 / 47 14.5  (W) 10.9 35.9 mph 300° @ 0341 AM 3.6 or 0.14 0.00 22 151.3 0
Denver City 7WNW 11:55 PM 79 36 57 /28 68 / 47 17.9  (NW) 13.2 50.6 mph 352° @ 0945 AM 2.5 or 0.1 0.00 12.8 91.6 0
Dimmitt 2NE 11:55 PM 79 36 57 /28 68 / 47 19.6  (NW) 15.2 44.1 mph 341° @ 0740 AM 1.8 or 0.07 0.00 7.3 54.6 0
Doole 3WNW 11:59 PM 79 36 57 /28 68 / 47 16.4  (S) 13.5 35.7 mph 347° @ 0232 PM 3.8 or 0.15 0.00 21.2 146.2 0
Dora NM 2SW 11:55 PM 79 36 57 /28 68 / 47 18.3  (W) 13.1 44.3 mph 354° @ 0925 AM 2 or 0.08 0.00 7.7 56.6 0
Dozier 3W 11:59 PM 79 36 57 /28 68 / 47 12.6  (NW) 8.6 34.7 mph 20° @ 1125 AM 1.5 or 0.06 0.01 8.9 69.2 0
Earth 9WSW 11:59 PM 79 36 57 /28 68 / 47 17.1  (W) 13.3 46 mph 343° @ 0856 AM 2 or 0.08 0.00 7.8 57.7 0
Endee NM 2SW 11:59 PM 79 36 57 /28 68 / 47 15.7  (N) 11.5 37.9 mph 8° @ 1030 AM 1.8 or 0.07 0.00 7.9 60.2 0
Estelline 3SSE 11:59 PM 79 36 57 /28 68 / 47 13.1  (W) 9.1 35.5 mph 353° @ 0102 PM 1.8 or 0.07 0.00 8.1 61.9 0
Floydada 2NNE 11:55 PM 79 36 57 /28 68 / 47 17  (W) 12.2 39.5 mph 6° @ 1220 PM 1.8 or 0.07 0.00 8 59.3 0
Fluvanna 3WNW 11:55 PM 79 36 57 /28 68 / 47 18.9  (NW) 14.9 43.8 mph 330° @ 0915 AM 2.8 or 0.11 0.00 14.7 105.4 0
Fort Chadbourne 11:59 PM 79 36 57 /28 68 / 47 12.4  (NW) 8.2 36.4 mph 8° @ 0253 PM 3 or 0.12 0.00 18.5 129.6 0
Fort Lancaster 11:59 PM 79 36 57 /28 68 / 47 9.6  (NE) 6.7 34.2 mph 304° @ 1249 PM 3 or 0.12 0.00 20.6 137.7 0
Fort Lewis CO 11:59 PM 79 36 57 /28 68 / 47 6.7  (N) 4.2 14.3 mph 336° @ 0204 AM 1.3 or 0.05 0.00 22.3 180.1 0
Fort McKavett 11:59 PM 79 36 57 /28 68 / 47 12  (SW) 7.5 35.4 mph 298° @ 1253 PM 3 or 0.12 0.00 22.6 152.1 0
Friona 2NE 11:55 PM 79 36 57 /28 68 / 47 18.8  (NW) 13.4 47.6 mph 348° @ 0805 AM 1.8 or 0.07 0.00 8.1 61 0
Fritch 1WNW 11:59 PM 79 36 57 /28 68 / 47 12.9  (NW) 9.7 34 mph 34° @ 1250 PM 1.8 or 0.07 0.00 7.7 60.2 0
Gail 2ESE 11:59 PM 79 36 57 /28 68 / 47 17.7  (NW) 12.8 47.1 mph 348° @ 0958 AM 2.8 or 0.11 0.00 17.8 126.7 0
Goodlett 3W 11:55 PM 79 36 57 /28 68 / 47 17.2  (W) 13.3 38.7 mph 9° @ 1005 AM 2.3 or 0.09 0.00 7.5 57.3 0
Goodnight 11:59 PM 79 36 57 /28 68 / 47 15.5  (NW) 11.7 42.6 mph 13° @ 1130 AM 1.8 or 0.07 0.00 7.8 59.8 0
Graham 5SSW 11:59 PM 79 36 57 /28 68 / 47 20.4  (NW) 14.5 48.2 mph 342° @ 1255 PM 2.8 or 0.11 0.00 13 93.9 0
Guadalupe Mtns Natl Park 11:59 PM 79 36 57 /28 68 / 47 13.6  (NW) 9.9 39.5 mph 299° @ 1259 AM 3 or 0.12 0.00 5.5 37.3 9
Guthrie 10WSW 11:59 PM 79 36 57 /28 68 / 47 16.1  (NW) 11.7 43.8 mph 357° @ 1141 AM 2.5 or 0.1 0.00 11.8 86.8 0
Hackberry 2SSE 11:59 PM 79 36 57 /28 68 / 47 15.6  (W) 11.9 39.2 mph 7° @ 1133 AM 2.3 or 0.09 0.00 11.1 82.7 0
Happy 1E 11:59 PM 79 36 57 /28 68 / 47 17.7  (NW) 14.3 41.7 mph 346° @ 0724 AM 1.8 or 0.07 0.00 7.6 57.4 0
Hart 3N 11:55 PM 79 36 57 /28 68 / 47 18.7  (W) 13.8 45.5 mph 336° @ 0805 AM 1.5 or 0.06 0.00 7.4 55.5 0
Haskell 1NW 11:55 PM 79 36 57 /28 68 / 47 16.4  (W) 12.2 42.5 mph 356° @ 1255 PM 2.5 or 0.1 0.00 13.1 95.3 0
Hefner 1SW 11:59 PM 79 36 57 /28 68 / 47 17.2  (W) 12.7 41.6 mph 340° @ 1245 PM 2.3 or 0.09 0.00 11.4 84.3 0
Hereford 2NW 11:55 PM 79 36 57 /28 68 / 47 16.2  (NW) 12.5 38.9 mph 346° @ 0700 AM 1.5 or 0.06 0.01 7.3 55.2 0
Hobbs NM 5NW 11:59 PM 79 36 57 /28 68 / 47 15.2  (NW) 12.5 43.3 mph 11° @ 1117 AM 2.5 or 0.1 0.00 14.9 105.5 0
Jayton 1SSE 11:55 PM 79 36 57 /28 68 / 47 14.5  (NW) 11.2 36.1 mph 0° @ 0130 PM 2.5 or 0.1 0.00 13 94.6 0
Junction 1SSW 11:59 PM 79 36 57 /28 68 / 47 8.8  (SW) 6.8 35.2 mph 320° @ 0313 PM 2.8 or 0.11 0.00 19.1 127.2 0
Kent 9E 11:59 PM 79 36 57 /28 68 / 47 11.6  (SW) 8.4 28.9 mph 352° @ 1144 AM 3 or 0.12 0.00 21.7 144.8 0
Knox City 3NW 11:59 PM 79 36 57 /28 68 / 47 13.2  (W) 9.7 40.6 mph 354° @ 1237 PM 2.5 or 0.1 0.00 12.9 94.9 0
Lake Alan Henry 1NW 11:59 PM 79 36 57 /28 68 / 47 14.7  (NW) 9.8 37 mph 359° @ 0940 AM 2.5 or 0.1 0.00 13.1 94.9 0
Lake McClellan 2NW 11:59 PM 79 36 57 /28 68 / 47 17.8  (NW) 13.4 44.9 mph 19° @ 1102 AM 1.8 or 0.07 0.00 9.6 74.3 0
Lamesa 2SE 11:55 PM 79 36 57 /28 68 / 47 16.6  (NW) 9.4 45.6 mph 2° @ 1120 AM 2.8 or 0.11 0.00 15.7 111.8 0
Lesley 2S 11:59 PM 79 36 57 /28 68 / 47 15.7  (NW) 10.9 42.4 mph 359° @ 1043 AM 2 or 0.08 0.00 8.9 67.8 0
Levelland 4S 11:59 PM 79 36 57 /28 68 / 47 19.4  (NW) 15.5 48.2 mph 344° @ 0944 AM 2.3 or 0.09 0.00 10.7 77.9 0
Lomax 1SSE 11:59 PM 79 36 57 /28 68 / 47 17.7  (NW) 13.9 41.4 mph 327° @ 1122 AM 3.3 or 0.13 0.00 19.9 139.3 0
Lubbock 3WNW TTU 11:55 PM 79 36 57 /28 68 / 47 15.3  (NW) 10.9 38.7 mph 357° @ 1135 AM 2 or 0.08 0.00 10.8 78.7 0
McAdoo 3NNW 11:59 PM 79 36 57 /28 68 / 47 18.2  (W) 13.1 43.8 mph 13° @ 0258 PM 1.8 or 0.07 0.00 8.7 64.2 0
McCamey 1SSW 11:59 PM 79 36 57 /28 68 / 47 10.7  (SW) 8.2 32 mph 329° @ 1240 PM 3 or 0.12 0.00 17.1 115.9 0
McLean 1E 11:55 PM 79 36 57 /28 68 / 47 14.1  (NW) 11.4 37 mph 18° @ 1225 PM 1.5 or 0.06 0.00 7.6 59 0
Memphis 1NE 11:59 PM 79 36 57 /28 68 / 47 14.8  (NW) 11.7 37.3 mph 9° @ 1228 PM 1.8 or 0.07 0.00 8 61 0
Menard 2NW 11:59 PM 79 36 57 /28 68 / 47 12.5  (SW) 9.7 32.7 mph 2° @ 0139 PM 3 or 0.12 0.00 19.9 134.6 0
Mertzon 3NNE 11:59 PM 79 36 57 /28 68 / 47 13  (SW) 9.5 34.5 mph 357° @ 0448 PM 3.3 or 0.13 0.00 20 136.4 0
Morton 1ENE 11:55 PM 79 36 57 /28 68 / 47 19  (W) 13.2 45.2 mph 343° @ 0910 AM 2.3 or 0.09 0.00 8.4 61.7 0
Muleshoe 2SSW 11:55 PM 79 36 57 /28 68 / 47 15.1  (W) 10.4 39.5 mph 358° @ 0935 AM 1.5 or 0.06 0.00 9.3 68.9 0
New Home 11:59 PM 79 36 57 /28 68 / 47 14.4  (NW) 8.6 37.9 mph 346° @ 0934 AM 2 or 0.08 0.00 11 79.4 0
Northfield 1S 11:55 PM 79 36 57 /28 68 / 47 13.1  (W) 8.8 36.1 mph 17° @ 0140 PM 1.5 or 0.06 0.00 7.3 55.3 0
O'Donnell 1N 11:55 PM 79 36 57 /28 68 / 47 19.4  (W) 14.5 43.6 mph 1° @ 0130 PM 2.8 or 0.11 0.00 2.6 93.7 0
Odell 4ENE 11:59 PM 79 36 57 /28 68 / 47 16.1  (S) 11.3 38.2 mph 9° @ 1236 PM 1.5 or 0.06 0.00 8.9 67.5 0
Olton 6S 11:55 PM 79 36 57 /28 68 / 47 19.2  (W) 15 41.5 mph 347° @ 0925 AM 1.8 or 0.07 0.00 7.9 58.3 0
Paducah 10SW 11:55 PM 79 36 57 /28 68 / 47 17.3  (NW) 10.7 40.6 mph 6° @ 1100 AM 2.3 or 0.09 0.00 1.7 64.5 0
Palo Duro 4E (JA Ranch) 11:59 PM 79 36 57 /28 68 / 47 14.8  (NW) 10.5 40.4 mph 17° @ 1207 PM 1.8 or 0.07 0.00 7.4 56.4 0
Palo Duro Canyon SP Floor 11:59 PM 79 36 57 /28 68 / 47 8.2  (NW) 4.4 31.1 mph 334° @ 1025 AM 1.5 or 0.06 0.00 5.4 41.2 0
Palo Duro Canyon State Park Rim 11:59 PM 79 36 57 /28 68 / 47 12.7  (NW) 7.1 39.5 mph 348° @ 0658 AM 1.8 or 0.07 0.00 6.2 47.7 0
Palo Duro Reservoir 1NW 11:59 PM 79 36 57 /28 68 / 47 14.7  (NW) 10.8 35 mph 301° @ 1205 AM 2 or 0.08 0.07 11 88.6 0
Pampa 2E 11:55 PM 79 36 57 /28 68 / 47 13.9  (NW) 10.4 38.7 mph 20° @ 1025 AM 1.5 or 0.06 0.00 8.2 63.8 0
Panhandle 1SSW 11:59 PM 79 36 57 /28 68 / 47 14.1  (NW) 11.3 35.5 mph 18° @ 1043 AM 1.5 or 0.06 0.01 7 53.9 0
Plains 3N 11:55 PM 79 36 57 /28 68 / 47 18.6  (W) 15.1 48.2 mph 348° @ 1000 AM 2.3 or 0.09 0.00 12.3 88.4 0
Plainview 1S 11:59 PM 79 36 57 /28 68 / 47 15.5  (W) 12.1 42.7 mph 4° @ 1152 AM 1.8 or 0.07 0.00 8.3 62 0
Post 1NE 11:59 PM 79 36 57 /28 68 / 47 17.6  (W) 12.3 49.3 mph 320° @ 0857 AM 2.5 or 0.1 0.00 11.8 85.7 0
Ralls 1SE 11:59 PM 79 36 57 /28 68 / 47 17.4  (NW) 14 47.1 mph 16° @ 0120 PM 2 or 0.08 0.00 10 73.1 0
Reese Center 11:59 PM 79 36 57 /28 68 / 47 19.9  (NW) 13.6 44.9 mph 6° @ 1206 PM 2.3 or 0.09 0.00 9.8 71.7 0
Roaring Springs 3N 11:59 PM 79 36 57 /28 68 / 47 16.8  (W) 12.1 42.7 mph 1° @ 0151 PM 2 or 0.08 0.00 9.7 71.8 0
Romero 11SSW 11:59 PM 79 36 57 /28 68 / 47 17.2  (NW) 12.9 43.8 mph 344° @ 0444 AM 2 or 0.08 0.00 8.1 63.1 0
Rotan 5W 11:59 PM 79 36 57 /28 68 / 47 17.1  (W) 13.7 41.4 mph 338° @ 1239 PM 3 or 0.12 0.00 15 108 0
San Angelo 7NW 11:55 PM 79 36 57 /28 68 / 47 12.7  (W) 9.5 33.3 mph 331° @ 0115 PM 3 or 0.12 0.00 20.1 138.7 0
Seagraves 1SW 11:59 PM 79 36 57 /28 68 / 47 17.8  (W) 13.5 52.6 mph 344° @ 0951 AM 2.8 or 0.11 0.00 16 114.4 0
Segovia 7SSW 11:59 PM 79 36 57 /28 68 / 47 12.2  (SW) 9.2 30.2 mph 337° @ 0319 PM 3.3 or 0.13 0.00 21.3 140.9 0
Seminole 2NNE 11:55 PM 79 36 57 /28 68 / 47 16.7  (NW) 12.1 47.6 mph 358° @ 1100 AM 2.8 or 0.11 0.00 16.3 115.5 0
Seymour 3NW 11:55 PM 79 36 57 /28 68 / 47 15  (SW) 11.3 35.3 mph 350° @ 1035 AM 2 or 0.08 0.00 7.3 54.1 0
Sierra Blanca 1SSE 11:59 PM 79 36 57 /28 68 / 47 12.6  (W) 9.5 26.8 mph 38° @ 0308 PM 3.6 or 0.14 0.00 21.4 142.6 0
Silverton 7ESE 11:55 PM 79 36 57 /28 68 / 47 16.1  (NW) 11.9 37.6 mph 18° @ 1140 AM 1.5 or 0.06 0.00 5.6 42.2 0
Slaton 2NE 11:59 PM 79 36 57 /28 68 / 47 17.1  (NW) 13 48.2 mph 17° @ 0133 PM 2 or 0.08 0.00 10.1 73.5 0
Smyer 11:59 PM 79 36 57 /28 68 / 47 19.2  (NW) 15.6 43.4 mph 352° @ 1016 AM 2.3 or 0.09 0.00 11 80.3 0
Snyder 3E 11:55 PM 79 36 57 /28 68 / 47 18.7  (NW) 8.3 43.5 mph 331° @ 1010 AM 3.3 or 0.13 0.00 13.8 98.3 0
Snyder 3SSW 11:59 PM 79 36 57 /28 68 / 47 16.7  (W) 12.6 38.8 mph 343° @ 1024 AM 3 or 0.12 0.00 16 114.2 0
South Plains 3ENE 11:59 PM 79 36 57 /28 68 / 47 14.9  (W) 11.3 39.8 mph 360° @ 1125 AM 1.5 or 0.06 0.00 8.1 60.3 0
Spur 1W 11:55 PM 79 36 57 /28 68 / 47 15.4  (NW) 11.2 37.4 mph 1° @ 1225 PM 2.3 or 0.09 0.00 12.3 90.2 0
St. Lawrence 5SW 11:59 PM 79 36 57 /28 68 / 47 19.2  (W) 14.9 44.9 mph 332° @ 1049 AM 3.8 or 0.15 0.00 21.8 149.8 0
Stamford 5ESE 11:59 PM 79 36 57 /28 68 / 47 15.9  (W) 11.4 41.3 mph 349° @ 1233 PM 2.8 or 0.11 0.00 14 101 0
Sterling City 4WSW 11:59 PM 79 36 57 /28 68 / 47 12.2  (NW) 8.5 34.9 mph 326° @ 1237 PM 3 or 0.12 0.00 15.7 109.2 0
Stinnett 1NNW 11:59 PM 79 36 57 /28 68 / 47 16.8  (NW) 12.8 36.5 mph 20° @ 0911 AM 2 or 0.08 0.00 10.4 82.5 0
Stratford 4WNW 11:59 PM 79 36 57 /28 68 / 47 16.8  (NW) 12.3 42.2 mph 356° @ 0251 AM 1.8 or 0.07 0.04 8.9 71.9 0
Sundown 8WSW 11:55 PM 79 36 57 /28 68 / 47 19.2  (NW) 13.1 46.6 mph 339° @ 0845 AM 2.3 or 0.09 0.00 8.9 64.6 0
Sweetwater 11SW 11:59 PM 79 36 57 /28 68 / 47 14.1  (W) 9.8 36.7 mph 341° @ 0335 PM 3 or 0.12 0.00 18.4 129.7 0
Tahoka 3NNE 11:59 PM 79 36 57 /28 68 / 47 17.4  (W) 12.1 45.4 mph 322° @ 0838 AM 2.3 or 0.09 0.00 12.2 88 0
Tarzan 2WNW 11:59 PM 79 36 57 /28 68 / 47 19.1  (NW) 13.5 42.6 mph 340° @ 1023 AM 3.3 or 0.13 0.00 17.3 121.1 0
Tatum NM 2SW 11:55 PM 79 36 57 /28 68 / 47 18.2  (NW) 13.7 47 mph 356° @ 1040 AM 2 or 0.08 0.00 11 78.9 0
Throckmorton 1SW 11:59 PM 79 36 57 /28 68 / 47 13.5  (W) 7.4 37.6 mph 333° @ 1254 PM 2.3 or 0.09 0.00 11.4 83.6 0
Truscott 2SE 11:59 PM 79 36 57 /28 68 / 47 15.1  (W) 11.7 37.8 mph 357° @ 1158 AM 2.3 or 0.09 0.00 9.7 71.9 0
Tulia 2ENE 11:55 PM 79 36 57 /28 68 / 47 17  (W) 12.9 43.8 mph 341° @ 0755 AM 1.8 or 0.07 0.00 5.3 39.6 0
Turkey 2WSW 11:55 PM 79 36 57 /28 68 / 47 15.6  (W) 12 40.6 mph 347° @ 0110 PM 1.8 or 0.07 0.00 5.9 44.8 0
Umbarger 3NNE 11:59 PM 79 36 57 /28 68 / 47 17  (NW) 13 37.8 mph 340° @ 0555 AM 1.5 or 0.06 0.01 7.4 56.7 0
Van Horn 3ENE 11:59 PM 79 36 57 /28 68 / 47 11.8  (W) 8.4 30 mph 33° @ 0309 PM 3.3 or 0.13 0.00 24.1 161 0
Vega 4E 11:59 PM 79 36 57 /28 68 / 47 16.5  (NW) 12.7 44.9 mph 353° @ 0734 AM 1.3 or 0.05 0.01 5.9 45.5 0
Vigo Park 11:59 PM 79 36 57 /28 68 / 47 15.2  (NW) 11.3 38.7 mph 16° @ 1137 AM 1.5 or 0.06 0.00 5.8 44.2 0
Wall 2E 11:59 PM 79 36 57 /28 68 / 47 17  (SW) 13.3 36 mph 9° @ 0447 PM 3.6 or 0.14 0.00 21 143.8 0
Weinert 2NNE 11:59 PM 79 36 57 /28 68 / 47 14.4  (NW) 10.8 39.2 mph 360° @ 1242 PM 2.5 or 0.1 0.00 11.1 81.4 0
Welch 11:59 PM 79 36 57 /28 68 / 47 18.7  (NW) 14.1 53.3 mph 342° @ 1010 AM 2.5 or 0.1 0.00 14.5 103.4 0
Wellington 6SE 11:59 PM 79 36 57 /28 68 / 47 16.5  (NW) 12.4 41.7 mph 20° @ 1103 AM 1.8 or 0.07 0.00 7.2 55.7 0
White River Lake 6NW 11:59 PM 79 36 57 /28 68 / 47 21.6  (NW) 15.7 47.1 mph 343° @ 0857 AM 2.5 or 0.1 0.00 12 87.6 0
Wolfforth 6SSW 11:59 PM 79 36 57 /28 68 / 47 20.3  (NW) 15.3 47.1 mph 342° @ 0933 AM 2.3 or 0.09 0.00 10.8 78.1 0

WestTexas Mesonet Home    Site Map/Menu  National Weather Service Lubbock   Soil Data   Latest Observation Page   Previous  Date   Next Last